sensor_id;sensor_type;location;lat;lon;timestamp;pressure;altitude;pressure_sealevel;temperature
62107;BMP280;48087;32.600;-97.100;2022-09-01T00:03:37;;;;26.77751
62107;BMP280;48087;32.600;-97.100;2022-09-01T00:08:40;;;;26.721954999999998
62107;BMP280;48087;32.600;-97.100;2022-09-01T00:13:45;;;;26.77751
62107;BMP280;48087;32.600;-97.100;2022-09-01T00:18:50;;;;26.721954999999998
62107;BMP280;48087;32.600;-97.100;2022-09-01T00:23:53;;;;26.721954999999998
62107;BMP280;48087;32.600;-97.100;2022-09-01T00:28:56;;;;26.721954999999998
62107;BMP280;48087;32.600;-97.100;2022-09-01T00:34:00;;;;26.721954999999998
62107;BMP280;48087;32.600;-97.100;2022-09-01T00:39:04;;;;26.6664
62107;BMP280;48087;32.600;-97.100;2022-09-01T00:44:09;;;;26.6664
62107;BMP280;48087;32.600;-97.100;2022-09-01T00:49:13;;;;26.610845
62107;BMP280;48087;32.600;-97.100;2022-09-01T00:54:18;;;;26.444179999999996
62107;BMP280;48087;32.600;-97.100;2022-09-01T00:59:21;;;;26.444179999999996
62107;BMP280;48087;32.600;-97.100;2022-09-01T01:04:24;;;;26.499735
62107;BMP280;48087;32.600;-97.100;2022-09-01T01:09:29;;;;26.388625
62107;BMP280;48087;32.600;-97.100;2022-09-01T01:14:33;;;;26.388625
62107;BMP280;48087;32.600;-97.100;2022-09-01T01:19:38;;;;26.333070000000003
62107;BMP280;48087;32.600;-97.100;2022-09-01T01:24:41;;;;26.388625
62107;BMP280;48087;32.600;-97.100;2022-09-01T01:29:45;;;;26.388625
62107;BMP280;48087;32.600;-97.100;2022-09-01T01:34:48;;;;26.333070000000003
62107;BMP280;48087;32.600;-97.100;2022-09-01T01:39:52;;;;26.22196
62107;BMP280;48087;32.600;-97.100;2022-09-01T01:44:56;;;;26.055295
62107;BMP280;48087;32.600;-97.100;2022-09-01T01:50:00;;;;25.99974
62107;BMP280;48087;32.600;-97.100;2022-09-01T01:55:04;;;;25.944185
62107;BMP280;48087;32.600;-97.100;2022-09-01T02:00:08;;;;25.99974
62107;BMP280;48087;32.600;-97.100;2022-09-01T02:05:12;;;;25.888629999999996
62107;BMP280;48087;32.600;-97.100;2022-09-01T02:10:16;;;;25.833075
62107;BMP280;48087;32.600;-97.100;2022-09-01T02:15:20;;;;25.777520000000003
62107;BMP280;48087;32.600;-97.100;2022-09-01T02:20:24;;;;25.777520000000003
62107;BMP280;48087;32.600;-97.100;2022-09-01T02:25:29;;;;25.777520000000003
62107;BMP280;48087;32.600;-97.100;2022-09-01T02:30:32;;;;25.721964999999997
62107;BMP280;48087;32.600;-97.100;2022-09-01T02:35:36;;;;25.666410000000003
62107;BMP280;48087;32.600;-97.100;2022-09-01T02:40:40;;;;25.610854999999997
62107;BMP280;48087;32.600;-97.100;2022-09-01T02:45:44;;;;25.499745000000004
62107;BMP280;48087;32.600;-97.100;2022-09-01T02:50:48;;;;25.499745000000004
62107;BMP280;48087;32.600;-97.100;2022-09-01T02:55:52;;;;25.5553
62107;BMP280;48087;32.600;-97.100;2022-09-01T03:00:56;;;;25.499745000000004
62107;BMP280;48087;32.600;-97.100;2022-09-01T03:05:59;;;;25.44419
62107;BMP280;48087;32.600;-97.100;2022-09-01T03:11:04;;;;25.388635
62107;BMP280;48087;32.600;-97.100;2022-09-01T03:16:08;;;;25.277525
62107;BMP280;48087;32.600;-97.100;2022-09-01T03:21:11;;;;25.333079999999995
62107;BMP280;48087;32.600;-97.100;2022-09-01T03:26:17;;;;25.221970000000002
62107;BMP280;48087;32.600;-97.100;2022-09-01T03:31:20;;;;25.166414999999997
62107;BMP280;48087;32.600;-97.100;2022-09-01T03:36:24;;;;25.055304999999997
62107;BMP280;48087;32.600;-97.100;2022-09-01T03:41:28;;;;24.88864
62107;BMP280;48087;32.600;-97.100;2022-09-01T03:46:31;;;;24.944195000000004
62107;BMP280;48087;32.600;-97.100;2022-09-01T03:51:35;;;;24.88864
62107;BMP280;48087;32.600;-97.100;2022-09-01T03:56:40;;;;24.833085
62107;BMP280;48087;32.600;-97.100;2022-09-01T04:01:44;;;;24.777529999999995
62107;BMP280;48087;32.600;-97.100;2022-09-01T04:06:47;;;;24.777529999999995
62107;BMP280;48087;32.600;-97.100;2022-09-01T04:11:51;;;;24.721975
62107;BMP280;48087;32.600;-97.100;2022-09-01T04:16:56;;;;24.555310000000002
62107;BMP280;48087;32.600;-97.100;2022-09-01T04:22:01;;;;24.4442
62107;BMP280;48087;32.600;-97.100;2022-09-01T04:27:04;;;;24.4442
62107;BMP280;48087;32.600;-97.100;2022-09-01T04:32:09;;;;24.499754999999997
62107;BMP280;48087;32.600;-97.100;2022-09-01T04:37:13;;;;24.4442
62107;BMP280;48087;32.600;-97.100;2022-09-01T04:42:15;;;;24.33309
62107;BMP280;48087;32.600;-97.100;2022-09-01T04:47:20;;;;24.33309
62107;BMP280;48087;32.600;-97.100;2022-09-01T04:52:24;;;;24.277535
62107;BMP280;48087;32.600;-97.100;2022-09-01T04:57:27;;;;24.166425
62107;BMP280;48087;32.600;-97.100;2022-09-01T05:02:31;;;;24.110870000000002
62107;BMP280;48087;32.600;-97.100;2022-09-01T05:07:35;;;;24.055314999999997
62107;BMP280;48087;32.600;-97.100;2022-09-01T05:12:40;;;;24.055314999999997
62107;BMP280;48087;32.600;-97.100;2022-09-01T05:17:43;;;;24.055314999999997
62107;BMP280;48087;32.600;-97.100;2022-09-01T05:22:48;;;;23.944204999999997
62107;BMP280;48087;32.600;-97.100;2022-09-01T05:27:51;;;;23.77754
62107;BMP280;48087;32.600;-97.100;2022-09-01T05:32:55;;;;23.77754
62107;BMP280;48087;32.600;-97.100;2022-09-01T05:37:59;;;;23.721985
62107;BMP280;48087;32.600;-97.100;2022-09-01T05:43:05;;;;23.77754
62107;BMP280;48087;32.600;-97.100;2022-09-01T05:48:07;;;;23.88865
62107;BMP280;48087;32.600;-97.100;2022-09-01T05:53:12;;;;23.88865
62107;BMP280;48087;32.600;-97.100;2022-09-01T05:58:15;;;;23.88865
62107;BMP280;48087;32.600;-97.100;2022-09-01T06:03:20;;;;23.833095000000004
62107;BMP280;48087;32.600;-97.100;2022-09-01T06:08:23;;;;23.944204999999997
62107;BMP280;48087;32.600;-97.100;2022-09-01T06:13:27;;;;23.88865
62107;BMP280;48087;32.600;-97.100;2022-09-01T06:18:31;;;;23.77754
62107;BMP280;48087;32.600;-97.100;2022-09-01T06:23:35;;;;23.77754
62107;BMP280;48087;32.600;-97.100;2022-09-01T06:28:39;;;;23.721985
62107;BMP280;48087;32.600;-97.100;2022-09-01T06:33:43;;;;23.721985
62107;BMP280;48087;32.600;-97.100;2022-09-01T06:38:47;;;;23.721985
62107;BMP280;48087;32.600;-97.100;2022-09-01T06:43:51;;;;23.721985
62107;BMP280;48087;32.600;-97.100;2022-09-01T06:48:55;;;;23.77754
62107;BMP280;48087;32.600;-97.100;2022-09-01T06:54:00;;;;23.721985
62107;BMP280;48087;32.600;-97.100;2022-09-01T06:59:03;;;;23.721985
62107;BMP280;48087;32.600;-97.100;2022-09-01T07:04:07;;;;23.721985
62107;BMP280;48087;32.600;-97.100;2022-09-01T07:09:10;;;;23.721985
62107;BMP280;48087;32.600;-97.100;2022-09-01T07:14:16;;;;23.666429999999995
62107;BMP280;48087;32.600;-97.100;2022-09-01T07:19:18;;;;23.610875
62107;BMP280;48087;32.600;-97.100;2022-09-01T07:24:23;;;;23.666429999999995
62107;BMP280;48087;32.600;-97.100;2022-09-01T07:29:27;;;;23.499764999999996
62107;BMP280;48087;32.600;-97.100;2022-09-01T07:34:31;;;;23.499764999999996
62107;BMP280;48087;32.600;-97.100;2022-09-01T07:39:35;;;;23.388654999999996
62107;BMP280;48087;32.600;-97.100;2022-09-01T07:44:39;;;;23.44421
62107;BMP280;48087;32.600;-97.100;2022-09-01T07:49:42;;;;23.333099999999998
62107;BMP280;48087;32.600;-97.100;2022-09-01T07:54:47;;;;23.277545000000003
62107;BMP280;48087;32.600;-97.100;2022-09-01T07:59:51;;;;23.333099999999998
62107;BMP280;48087;32.600;-97.100;2022-09-01T08:04:55;;;;23.277545000000003
62107;BMP280;48087;32.600;-97.100;2022-09-01T08:09:58;;;;23.388654999999996
62107;BMP280;48087;32.600;-97.100;2022-09-01T08:15:04;;;;23.44421
62107;BMP280;48087;32.600;-97.100;2022-09-01T08:20:06;;;;23.499764999999996
62107;BMP280;48087;32.600;-97.100;2022-09-01T08:25:11;;;;23.44421
62107;BMP280;48087;32.600;-97.100;2022-09-01T08:30:14;;;;23.44421
62107;BMP280;48087;32.600;-97.100;2022-09-01T08:35:20;;;;23.610875
62107;BMP280;48087;32.600;-97.100;2022-09-01T08:40:23;;;;23.499764999999996
62107;BMP280;48087;32.600;-97.100;2022-09-01T08:45:29;;;;23.555320000000002
62107;BMP280;48087;32.600;-97.100;2022-09-01T08:50:30;;;;23.499764999999996
62107;BMP280;48087;32.600;-97.100;2022-09-01T08:55:36;;;;23.555320000000002
62107;BMP280;48087;32.600;-97.100;2022-09-01T09:00:40;;;;23.555320000000002
62107;BMP280;48087;32.600;-97.100;2022-09-01T09:05:46;;;;23.499764999999996
62107;BMP280;48087;32.600;-97.100;2022-09-01T09:10:50;;;;23.388654999999996
62107;BMP280;48087;32.600;-97.100;2022-09-01T09:15:51;;;;23.333099999999998
62107;BMP280;48087;32.600;-97.100;2022-09-01T09:20:55;;;;23.388654999999996
62107;BMP280;48087;32.600;-97.100;2022-09-01T09:25:58;;;;23.44421
62107;BMP280;48087;32.600;-97.100;2022-09-01T09:31:35;;;;23.388654999999996
62107;BMP280;48087;32.600;-97.100;2022-09-01T09:36:15;;;;23.499764999999996
62107;BMP280;48087;32.600;-97.100;2022-09-01T09:41:14;;;;23.555320000000002
62107;BMP280;48087;32.600;-97.100;2022-09-01T09:46:19;;;;23.610875
62107;BMP280;48087;32.600;-97.100;2022-09-01T09:51:35;;;;23.666429999999995
62107;BMP280;48087;32.600;-97.100;2022-09-01T09:56:39;;;;23.555320000000002
62107;BMP280;48087;32.600;-97.100;2022-09-01T10:01:42;;;;23.499764999999996
62107;BMP280;48087;32.600;-97.100;2022-09-01T10:06:46;;;;23.44421
62107;BMP280;48087;32.600;-97.100;2022-09-01T10:11:51;;;;23.388654999999996
62107;BMP280;48087;32.600;-97.100;2022-09-01T10:16:55;;;;23.221989999999998
62107;BMP280;48087;32.600;-97.100;2022-09-01T10:21:59;;;;23.166435
62107;BMP280;48087;32.600;-97.100;2022-09-01T10:27:04;;;;23.166435
62107;BMP280;48087;32.600;-97.100;2022-09-01T10:32:08;;;;23.055325
62107;BMP280;48087;32.600;-97.100;2022-09-01T10:37:10;;;;23.110879999999998
62107;BMP280;48087;32.600;-97.100;2022-09-01T10:42:16;;;;23.166435
62107;BMP280;48087;32.600;-97.100;2022-09-01T10:47:23;;;;23.110879999999998
62107;BMP280;48087;32.600;-97.100;2022-09-01T10:57:34;;;;23.166435
62107;BMP280;48087;32.600;-97.100;2022-09-01T11:02:31;;;;23.221989999999998
62107;BMP280;48087;32.600;-97.100;2022-09-01T11:07:34;;;;23.221989999999998
62107;BMP280;48087;32.600;-97.100;2022-09-01T11:12:42;;;;23.277545000000003
62107;BMP280;48087;32.600;-97.100;2022-09-01T11:17:53;;;;23.221989999999998
62107;BMP280;48087;32.600;-97.100;2022-09-01T11:22:56;;;;23.221989999999998
62107;BMP280;48087;32.600;-97.100;2022-09-01T11:28:07;;;;23.221989999999998
62107;BMP280;48087;32.600;-97.100;2022-09-01T11:32:56;;;;23.221989999999998
62107;BMP280;48087;32.600;-97.100;2022-09-01T11:38:01;;;;23.221989999999998
62107;BMP280;48087;32.600;-97.100;2022-09-01T11:43:04;;;;23.277545000000003
62107;BMP280;48087;32.600;-97.100;2022-09-01T11:48:06;;;;23.277545000000003
62107;BMP280;48087;32.600;-97.100;2022-09-01T11:53:12;;;;23.221989999999998
62107;BMP280;48087;32.600;-97.100;2022-09-01T11:58:27;;;;23.166435
62107;BMP280;48087;32.600;-97.100;2022-09-01T12:03:19;;;;23.166435
62107;BMP280;48087;32.600;-97.100;2022-09-01T12:08:21;;;;23.055325
62107;BMP280;48087;32.600;-97.100;2022-09-01T12:13:26;;;;23.221989999999998
62107;BMP280;48087;32.600;-97.100;2022-09-01T12:18:31;;;;23.333099999999998
62107;BMP280;48087;32.600;-97.100;2022-09-01T12:23:35;;;;23.333099999999998
62107;BMP280;48087;32.600;-97.100;2022-09-01T12:28:38;;;;23.44421
62107;BMP280;48087;32.600;-97.100;2022-09-01T12:33:42;;;;23.44421
62107;BMP280;48087;32.600;-97.100;2022-09-01T12:38:46;;;;23.499764999999996
62107;BMP280;48087;32.600;-97.100;2022-09-01T12:43:51;;;;23.666429999999995
62107;BMP280;48087;32.600;-97.100;2022-09-01T12:48:53;;;;23.721985
62107;BMP280;48087;32.600;-97.100;2022-09-01T12:53:58;;;;23.833095000000004
62107;BMP280;48087;32.600;-97.100;2022-09-01T12:59:04;;;;23.999760000000002
62107;BMP280;48087;32.600;-97.100;2022-09-01T13:04:21;;;;24.055314999999997
62107;BMP280;48087;32.600;-97.100;2022-09-01T13:09:09;;;;24.221979999999995
62107;BMP280;48087;32.600;-97.100;2022-09-01T13:14:15;;;;24.33309
62107;BMP280;48087;32.600;-97.100;2022-09-01T13:19:17;;;;24.499754999999997
62107;BMP280;48087;32.600;-97.100;2022-09-01T13:24:22;;;;24.610864999999997
62107;BMP280;48087;32.600;-97.100;2022-09-01T13:29:25;;;;24.721975
62107;BMP280;48087;32.600;-97.100;2022-09-01T13:34:30;;;;24.99975
62107;BMP280;48087;32.600;-97.100;2022-09-01T13:39:34;;;;25.166414999999997
62107;BMP280;48087;32.600;-97.100;2022-09-01T13:44:38;;;;25.221970000000002
62107;BMP280;48087;32.600;-97.100;2022-09-01T13:49:42;;;;25.333079999999995
62107;BMP280;48087;32.600;-97.100;2022-09-01T13:54:45;;;;25.721964999999997
62107;BMP280;48087;32.600;-97.100;2022-09-01T13:59:49;;;;25.99974
62107;BMP280;48087;32.600;-97.100;2022-09-01T14:04:53;;;;26.166404999999997
62107;BMP280;48087;32.600;-97.100;2022-09-01T14:09:58;;;;26.22196
62107;BMP280;48087;32.600;-97.100;2022-09-01T14:15:03;;;;26.55529
62107;BMP280;48087;32.600;-97.100;2022-09-01T14:20:07;;;;26.833064999999998
62107;BMP280;48087;32.600;-97.100;2022-09-01T14:25:10;;;;26.999729999999996
62107;BMP280;48087;32.600;-97.100;2022-09-01T14:30:15;;;;27.277504999999998
62107;BMP280;48087;32.600;-97.100;2022-09-01T14:35:19;;;;27.721945
62107;BMP280;48087;32.600;-97.100;2022-09-01T14:40:22;;;;27.944164999999998
62107;BMP280;48087;32.600;-97.100;2022-09-01T14:45:26;;;;27.666389999999996
62107;BMP280;48087;32.600;-97.100;2022-09-01T14:50:29;;;;27.999720000000003
62107;BMP280;48087;32.600;-97.100;2022-09-01T14:55:34;;;;28.221939999999996
62107;BMP280;48087;32.600;-97.100;2022-09-01T15:00:38;;;;28.221939999999996
62107;BMP280;48087;32.600;-97.100;2022-09-01T15:05:41;;;;28.33305
62107;BMP280;48087;32.600;-97.100;2022-09-01T15:10:46;;;;28.33305
62107;BMP280;48087;32.600;-97.100;2022-09-01T15:15:50;;;;28.221939999999996
62107;BMP280;48087;32.600;-97.100;2022-09-01T15:20:53;;;;27.944164999999998
62107;BMP280;48087;32.600;-97.100;2022-09-01T15:25:58;;;;27.999720000000003
62107;BMP280;48087;32.600;-97.100;2022-09-01T15:31:01;;;;27.610835
62107;BMP280;48087;32.600;-97.100;2022-09-01T15:36:07;;;;27.88861
62107;BMP280;48087;32.600;-97.100;2022-09-01T15:41:14;;;;27.88861
62107;BMP280;48087;32.600;-97.100;2022-09-01T15:46:13;;;;27.999720000000003
62107;BMP280;48087;32.600;-97.100;2022-09-01T15:51:33;;;;28.277495000000002
62107;BMP280;48087;32.600;-97.100;2022-09-01T15:56:21;;;;28.610825
62107;BMP280;48087;32.600;-97.100;2022-09-01T16:01:25;;;;28.721935000000002
62107;BMP280;48087;32.600;-97.100;2022-09-01T16:06:29;;;;29.055265
62107;BMP280;48087;32.600;-97.100;2022-09-01T16:11:34;;;;28.944154999999995
62107;BMP280;48087;32.600;-97.100;2022-09-01T16:16:40;;;;29.055265
62107;BMP280;48087;32.600;-97.100;2022-09-01T16:21:43;;;;29.333039999999997
62107;BMP280;48087;32.600;-97.100;2022-09-01T16:26:47;;;;28.99971
62107;BMP280;48087;32.600;-97.100;2022-09-01T16:31:50;;;;29.44415
62107;BMP280;48087;32.600;-97.100;2022-09-01T16:36:55;;;;29.721925
62107;BMP280;48087;32.600;-97.100;2022-09-01T16:42:00;;;;29.777479999999997
62107;BMP280;48087;32.600;-97.100;2022-09-01T16:47:03;;;;29.888589999999997
62107;BMP280;48087;32.600;-97.100;2022-09-01T16:52:07;;;;29.55526
62107;BMP280;48087;32.600;-97.100;2022-09-01T16:57:11;;;;28.777489999999997
62107;BMP280;48087;32.600;-97.100;2022-09-01T17:02:18;;;;28.944154999999995
62107;BMP280;48087;32.600;-97.100;2022-09-01T17:07:19;;;;28.944154999999995
62107;BMP280;48087;32.600;-97.100;2022-09-01T17:12:22;;;;28.99971
62107;BMP280;48087;32.600;-97.100;2022-09-01T17:17:30;;;;28.666379999999997
62107;BMP280;48087;32.600;-97.100;2022-09-01T17:22:29;;;;28.499715
62107;BMP280;48087;32.600;-97.100;2022-09-01T17:27:34;;;;27.88861
62107;BMP280;48087;32.600;-97.100;2022-09-01T17:32:42;;;;28.055274999999998
62107;BMP280;48087;32.600;-97.100;2022-09-01T17:37:49;;;;28.388604999999995
62107;BMP280;48087;32.600;-97.100;2022-09-01T17:42:46;;;;28.499715
62107;BMP280;48087;32.600;-97.100;2022-09-01T17:47:52;;;;29.166375
62107;BMP280;48087;32.600;-97.100;2022-09-01T17:52:56;;;;29.277485000000002
62107;BMP280;48087;32.600;-97.100;2022-09-01T17:57:59;;;;29.055265
62107;BMP280;48087;32.600;-97.100;2022-09-01T18:03:04;;;;29.777479999999997
62107;BMP280;48087;32.600;-97.100;2022-09-01T18:08:09;;;;29.944145000000002
62107;BMP280;48087;32.600;-97.100;2022-09-01T18:13:13;;;;30.66636
62107;BMP280;48087;32.600;-97.100;2022-09-01T18:18:19;;;;31.110799999999998
62107;BMP280;48087;32.600;-97.100;2022-09-01T18:23:18;;;;31.277465
62107;BMP280;48087;32.600;-97.100;2022-09-01T18:28:21;;;;31.833014999999996
62107;BMP280;48087;32.600;-97.100;2022-09-01T18:33:26;;;;32.499674999999996
62107;BMP280;48087;32.600;-97.100;2022-09-01T18:38:34;;;;33.11078
62107;BMP280;48087;32.600;-97.100;2022-09-01T18:43:34;;;;31.721904999999996
62107;BMP280;48087;32.600;-97.100;2022-09-01T18:48:41;;;;30.944135
62107;BMP280;48087;32.600;-97.100;2022-09-01T18:53:42;;;;31.388575
62107;BMP280;48087;32.600;-97.100;2022-09-01T18:58:51;;;;30.610804999999996
62107;BMP280;48087;32.600;-97.100;2022-09-01T19:03:49;;;;31.277465
62107;BMP280;48087;32.600;-97.100;2022-09-01T19:08:57;;;;31.77746
62107;BMP280;48087;32.600;-97.100;2022-09-01T19:14:00;;;;31.499685
62107;BMP280;48087;32.600;-97.100;2022-09-01T19:19:02;;;;30.055254999999995
62107;BMP280;48087;32.600;-97.100;2022-09-01T19:24:06;;;;29.9997
62107;BMP280;48087;32.600;-97.100;2022-09-01T19:29:12;;;;30.11081
62107;BMP280;48087;32.600;-97.100;2022-09-01T19:34:13;;;;29.666370000000004
62107;BMP280;48087;32.600;-97.100;2022-09-01T19:39:19;;;;29.333039999999997
62107;BMP280;48087;32.600;-97.100;2022-09-01T19:44:23;;;;29.166375
62107;BMP280;48087;32.600;-97.100;2022-09-01T19:49:29;;;;28.99971
62107;BMP280;48087;32.600;-97.100;2022-09-01T19:54:33;;;;29.166375
62107;BMP280;48087;32.600;-97.100;2022-09-01T19:59:36;;;;29.166375
62107;BMP280;48087;32.600;-97.100;2022-09-01T20:04:38;;;;28.99971
62107;BMP280;48087;32.600;-97.100;2022-09-01T20:09:42;;;;28.8886
62107;BMP280;48087;32.600;-97.100;2022-09-01T20:14:49;;;;27.833054999999995
62107;BMP280;48087;32.600;-97.100;2022-09-01T20:19:51;;;;26.721954999999998
62107;BMP280;48087;32.600;-97.100;2022-09-01T20:24:52;;;;25.610854999999997
62107;BMP280;48087;32.600;-97.100;2022-09-01T20:29:59;;;;23.999760000000002
62107;BMP280;48087;32.600;-97.100;2022-09-01T20:35:05;;;;23.333099999999998
62107;BMP280;48087;32.600;-97.100;2022-09-01T20:40:05;;;;22.666439999999998
62107;BMP280;48087;32.600;-97.100;2022-09-01T20:45:10;;;;22.055335
62107;BMP280;48087;32.600;-97.100;2022-09-01T20:50:12;;;;21.944225
62107;BMP280;48087;32.600;-97.100;2022-09-01T20:55:18;;;;22.055335
62107;BMP280;48087;32.600;-97.100;2022-09-01T21:00:22;;;;22.166445000000003
62107;BMP280;48087;32.600;-97.100;2022-09-01T21:05:29;;;;22.33311
62107;BMP280;48087;32.600;-97.100;2022-09-01T21:10:31;;;;22.555329999999998
62107;BMP280;48087;32.600;-97.100;2022-09-01T21:15:52;;;;22.610885
62107;BMP280;48087;32.600;-97.100;2022-09-01T21:20:54;;;;22.721995000000003
62107;BMP280;48087;32.600;-97.100;2022-09-01T21:25:56;;;;22.944214999999996
62107;BMP280;48087;32.600;-97.100;2022-09-01T21:31:00;;;;23.055325
62107;BMP280;48087;32.600;-97.100;2022-09-01T21:36:05;;;;23.221989999999998
62107;BMP280;48087;32.600;-97.100;2022-09-01T21:41:08;;;;23.44421
62107;BMP280;48087;32.600;-97.100;2022-09-01T21:46:13;;;;23.666429999999995
62107;BMP280;48087;32.600;-97.100;2022-09-01T21:51:13;;;;23.77754
62107;BMP280;48087;32.600;-97.100;2022-09-01T21:56:21;;;;23.999760000000002
62107;BMP280;48087;32.600;-97.100;2022-09-01T22:01:25;;;;24.110870000000002
62107;BMP280;48087;32.600;-97.100;2022-09-01T22:06:29;;;;24.33309
62107;BMP280;48087;32.600;-97.100;2022-09-01T22:11:33;;;;24.4442
62107;BMP280;48087;32.600;-97.100;2022-09-01T22:16:37;;;;24.499754999999997
62107;BMP280;48087;32.600;-97.100;2022-09-01T22:21:40;;;;24.610864999999997
62107;BMP280;48087;32.600;-97.100;2022-09-01T22:26:45;;;;24.666420000000002
62107;BMP280;48087;32.600;-97.100;2022-09-01T22:31:48;;;;24.666420000000002
62107;BMP280;48087;32.600;-97.100;2022-09-01T22:36:52;;;;24.610864999999997
62107;BMP280;48087;32.600;-97.100;2022-09-01T22:41:56;;;;24.610864999999997
62107;BMP280;48087;32.600;-97.100;2022-09-01T22:47:00;;;;24.555310000000002
62107;BMP280;48087;32.600;-97.100;2022-09-01T22:52:04;;;;24.4442
62107;BMP280;48087;32.600;-97.100;2022-09-01T22:57:08;;;;24.221979999999995
62107;BMP280;48087;32.600;-97.100;2022-09-01T23:02:11;;;;24.110870000000002
62107;BMP280;48087;32.600;-97.100;2022-09-01T23:07:16;;;;24.110870000000002
62107;BMP280;48087;32.600;-97.100;2022-09-01T23:12:19;;;;24.055314999999997
62107;BMP280;48087;32.600;-97.100;2022-09-01T23:17:24;;;;23.999760000000002
62107;BMP280;48087;32.600;-97.100;2022-09-01T23:22:27;;;;24.055314999999997
62107;BMP280;48087;32.600;-97.100;2022-09-01T23:27:33;;;;24.221979999999995
62107;BMP280;48087;32.600;-97.100;2022-09-01T23:32:36;;;;24.4442
62107;BMP280;48087;32.600;-97.100;2022-09-01T23:37:40;;;;24.4442
62107;BMP280;48087;32.600;-97.100;2022-09-01T23:42:43;;;;24.33309
62107;BMP280;48087;32.600;-97.100;2022-09-01T23:47:48;;;;24.33309
62107;BMP280;48087;32.600;-97.100;2022-09-01T23:52:52;;;;24.221979999999995
62107;BMP280;48087;32.600;-97.100;2022-09-01T23:57:56;;;;24.166425
